Time;durP1;ratioP1;P1;durP2;ratioP2;P2;SDS_P1;SDS_P2;PMS_P1;PMS_P2;Temp;Humidity;BMP_temperature;BMP_pressure;BME280_temperature;BME280_humidity;BME280_pressure;Samples;Min_cycle;Max_cycle;Signal;HPM_P1;HPM_P2
2021/10/22 00:07:33;;;;;;;11.27;1.33;;;;;;;;;;5017501;28;20249;-69
2021/10/22 00:09:58;;;;;;;11.37;1.80;;;;;;;;;;5018621;28;20611;-71
2021/10/22 00:12:24;;;;;;;15.50;2.07;;;;;;;;;;5021840;28;20178;-70
2021/10/22 00:14:49;;;;;;;12.23;1.80;;;;;;;;;;5013672;28;20328;-71
2021/10/22 00:17:15;;;;;;;9.87;1.90;;;;;;;;;;5027929;28;20185;-72
2021/10/22 00:19:40;;;;;;;12.23;1.77;;;;;;;;;;5015775;28;20526;-71
2021/10/22 00:22:06;;;;;;;12.63;1.90;;;;;;;;;;5024201;28;20273;-70
2021/10/22 00:24:31;;;;;;;13.37;1.80;;;;;;;;;;5026002;28;20229;-72
2021/10/22 00:26:57;;;;;;;7.67;1.47;;;;;;;;;;5017110;28;20197;-71
2021/10/22 00:29:23;;;;;;;13.20;1.67;;;;;;;;;;5023402;28;20336;-70
2021/10/22 00:31:48;;;;;;;7.07;1.40;;;;;;;;;;5018608;28;20273;-72
2021/10/22 00:34:13;;;;;;;14.03;1.80;;;;;;;;;;5025438;28;20189;-71
2021/10/22 00:36:39;;;;;;;14.67;1.97;;;;;;;;;;5018832;28;20193;-71
2021/10/22 00:39:05;;;;;;;10.07;1.60;;;;;;;;;;5024144;28;20265;-74
2021/10/22 00:41:32;;;;;;;13.20;1.90;;;;;;;;;;5015015;28;20197;-70
2021/10/22 00:43:57;;;;;;;7.40;1.50;;;;;;;;;;5027112;28;20190;-75
2021/10/22 00:46:27;;;;;;;11.77;1.80;;;;;;;;;;5019676;28;20221;-72
2021/10/22 00:48:53;;;;;;;12.00;1.63;;;;;;;;;;5024923;28;20648;-71
2021/10/22 00:51:19;;;;;;;9.70;1.43;;;;;;;;;;5014919;28;20206;-71
2021/10/22 00:53:44;;;;;;;8.87;1.30;;;;;;;;;;5024333;28;20614;-73
2021/10/22 00:56:10;;;;;;;9.63;1.83;;;;;;;;;;5025917;28;20206;-71
2021/10/22 00:58:37;;;;;;;13.93;2.00;;;;;;;;;;5021543;28;20687;-71
2021/10/22 01:01:03;;;;;;;8.83;1.53;;;;;;;;;;5023992;28;20222;-73
2021/10/22 01:03:28;;;;;;;10.53;1.60;;;;;;;;;;5020223;28;20194;-73
2021/10/22 01:05:54;;;;;;;16.63;1.80;;;;;;;;;;5023843;28;20200;-70
2021/10/22 01:08:19;;;;;;;16.67;1.33;;;;;;;;;;5017087;28;20218;-70
2021/10/22 01:10:45;;;;;;;12.27;1.70;;;;;;;;;;5021914;28;20200;-71
2021/10/22 01:13:10;;;;;;;6.30;1.30;;;;;;;;;;5018787;28;20267;-71
2021/10/22 01:15:36;;;;;;;14.67;1.53;;;;;;;;;;5023906;28;20694;-71
2021/10/22 01:18:02;;;;;;;16.37;2.13;;;;;;;;;;5018749;28;20287;-72
2021/10/22 01:20:28;;;;;;;16.13;1.70;;;;;;;;;;5024093;28;20620;-70
2021/10/22 01:22:55;;;;;;;13.90;1.40;;;;;;;;;;5019845;28;20236;-74
2021/10/22 01:25:24;;;;;;;10.07;1.50;;;;;;;;;;5022887;28;20191;-70
2021/10/22 01:27:50;;;;;;;8.37;1.30;;;;;;;;;;5023150;28;20202;-71
2021/10/22 01:30:17;;;;;;;7.27;1.60;;;;;;;;;;5014577;28;21253;-71
2021/10/22 01:32:44;;;;;;;17.43;2.10;;;;;;;;;;5026498;28;20195;-70
2021/10/22 01:35:10;;;;;;;10.27;1.47;;;;;;;;;;5013820;28;20190;-70
2021/10/22 01:37:36;;;;;;;12.33;1.70;;;;;;;;;;5027255;28;20194;-72
2021/10/22 01:40:06;;;;;;;12.30;1.80;;;;;;;;;;5013186;28;20232;-70
2021/10/22 01:42:32;;;;;;;10.60;1.67;;;;;;;;;;5021375;28;20186;-71
2021/10/22 01:44:57;;;;;;;7.33;1.60;;;;;;;;;;5017045;28;20216;-70
2021/10/22 01:47:23;;;;;;;15.47;1.70;;;;;;;;;;5023591;28;20202;-71
2021/10/22 01:49:49;;;;;;;16.87;1.70;;;;;;;;;;5015907;28;20174;-71
2021/10/22 01:52:14;;;;;;;11.10;1.63;;;;;;;;;;5024320;28;20552;-71
2021/10/22 01:54:40;;;;;;;11.10;1.70;;;;;;;;;;5013927;28;20183;-73
2021/10/22 01:57:06;;;;;;;10.93;1.50;;;;;;;;;;5023440;28;20626;-72
2021/10/22 01:59:32;;;;;;;13.93;1.80;;;;;;;;;;5024868;28;20198;-70
2021/10/22 02:01:57;;;;;;;14.37;2.00;;;;;;;;;;5014426;28;20190;-69
2021/10/22 02:04:23;;;;;;;7.53;1.23;;;;;;;;;;5021302;28;20205;-71
2021/10/22 02:06:49;;;;;;;12.03;1.60;;;;;;;;;;5017383;28;20265;-73
2021/10/22 02:09:16;;;;;;;9.33;1.93;;;;;;;;;;5025185;28;20212;-71
2021/10/22 02:11:42;;;;;;;9.57;1.73;;;;;;;;;;5014420;28;20252;-70
2021/10/22 02:14:07;;;;;;;9.13;1.77;;;;;;;;;;5021662;28;20564;-73
2021/10/22 02:16:33;;;;;;;12.23;3.03;;;;;;;;;;5016347;28;20201;-71
2021/10/22 02:18:58;;;;;;;10.63;1.87;;;;;;;;;;5022969;28;20182;-70
2021/10/22 02:21:24;;;;;;;8.83;1.30;;;;;;;;;;5014914;28;20186;-70
2021/10/22 02:23:50;;;;;;;10.20;2.10;;;;;;;;;;5024566;28;20174;-72
2021/10/22 02:26:15;;;;;;;13.17;2.50;;;;;;;;;;5014055;28;20308;-73
2021/10/22 02:28:41;;;;;;;16.50;1.83;;;;;;;;;;5025773;28;20190;-70
2021/10/22 02:31:06;;;;;;;12.73;1.60;;;;;;;;;;5022385;28;20212;-70
2021/10/22 02:33:31;;;;;;;10.57;1.60;;;;;;;;;;5014137;28;20201;-70
2021/10/22 02:35:57;;;;;;;14.27;1.77;;;;;;;;;;5025430;28;20186;-73
2021/10/22 02:38:22;;;;;;;10.13;1.73;;;;;;;;;;5017619;28;20189;-71
2021/10/22 02:40:47;;;;;;;12.00;1.43;;;;;;;;;;5022315;28;20259;-71
2021/10/22 02:43:13;;;;;;;16.60;1.50;;;;;;;;;;5016221;28;20216;-72
2021/10/22 02:45:38;;;;;;;8.70;1.40;;;;;;;;;;5023607;28;20190;-73
2021/10/22 02:48:03;;;;;;;12.10;1.20;;;;;;;;;;5012707;28;20231;-74
2021/10/22 02:50:29;;;;;;;10.93;1.90;;;;;;;;;;5023696;28;20182;-71
2021/10/22 02:52:54;;;;;;;13.40;1.60;;;;;;;;;;5015920;28;20206;-70
2021/10/22 02:55:19;;;;;;;8.87;1.57;;;;;;;;;;5024414;28;20188;-70
2021/10/22 02:57:45;;;;;;;6.00;1.30;;;;;;;;;;5023644;28;20213;-71
2021/10/22 03:00:12;;;;;;;8.93;1.60;;;;;;;;;;5015092;28;20202;-70
2021/10/22 03:02:40;;;;;;;14.87;1.80;;;;;;;;;;5022937;28;20221;-70
2021/10/22 03:05:09;;;;;;;11.37;1.70;;;;;;;;;;5015306;28;20182;-70
2021/10/22 03:07:34;;;;;;;12.33;1.90;;;;;;;;;;5025289;28;20229;-70
2021/10/22 03:10:00;;;;;;;12.77;1.70;;;;;;;;;;5017742;28;20190;-70
2021/10/22 03:12:25;;;;;;;11.20;1.67;;;;;;;;;;5022320;28;20721;-70
2021/10/22 03:14:50;;;;;;;11.70;1.60;;;;;;;;;;5014457;28;20213;-69
2021/10/22 03:17:16;;;;;;;13.93;2.00;;;;;;;;;;5023812;28;20280;-73
2021/10/22 03:19:41;;;;;;;9.87;1.80;;;;;;;;;;5015555;28;20210;-70
2021/10/22 03:22:06;;;;;;;12.50;1.63;;;;;;;;;;5022887;28;20190;-70
2021/10/22 03:24:32;;;;;;;11.80;2.17;;;;;;;;;;5015350;28;20190;-71
2021/10/22 03:26:57;;;;;;;6.67;1.20;;;;;;;;;;5025246;28;20634;-70
2021/10/22 03:29:22;;;;;;;10.37;1.57;;;;;;;;;;5020348;28;20545;-70
2021/10/22 03:31:48;;;;;;;7.77;1.50;;;;;;;;;;5015145;28;20187;-70
2021/10/22 03:34:14;;;;;;;9.37;1.67;;;;;;;;;;5020167;28;20591;-73
2021/10/22 03:36:41;;;;;;;9.00;1.60;;;;;;;;;;5011371;28;20183;-72
2021/10/22 03:39:06;;;;;;;14.07;1.63;;;;;;;;;;5025530;28;20214;-73
2021/10/22 03:41:32;;;;;;;9.10;1.63;;;;;;;;;;5013842;28;20283;-70
2021/10/22 03:43:57;;;;;;;14.73;1.60;;;;;;;;;;5026294;28;20186;-73
2021/10/22 03:46:22;;;;;;;14.00;2.10;;;;;;;;;;5019631;28;20186;-69
2021/10/22 03:48:48;;;;;;;11.60;2.00;;;;;;;;;;5027709;28;20185;-69
2021/10/22 03:51:13;;;;;;;9.60;2.30;;;;;;;;;;5018164;28;20185;-71
2021/10/22 03:53:39;;;;;;;12.37;2.00;;;;;;;;;;5028752;28;20276;-70
2021/10/22 03:56:04;;;;;;;6.97;1.50;;;;;;;;;;5015701;28;20213;-71
2021/10/22 03:58:30;;;;;;;6.67;1.30;;;;;;;;;;5023098;28;20178;-68
2021/10/22 04:00:55;;;;;;;10.23;2.27;;;;;;;;;;5024648;28;20218;-73
2021/10/22 04:03:21;;;;;;;18.20;1.63;;;;;;;;;;5023827;28;20186;-72
2021/10/22 04:05:46;;;;;;;8.87;1.70;;;;;;;;;;5025162;28;20182;-74
2021/10/22 04:08:11;;;;;;;10.40;1.73;;;;;;;;;;5017416;28;20248;-69
2021/10/22 04:10:40;;;;;;;8.13;1.40;;;;;;;;;;5026007;28;20626;-69
2021/10/22 04:13:06;;;;;;;8.57;1.40;;;;;;;;;;5015930;28;20201;-69
2021/10/22 04:15:31;;;;;;;8.27;1.77;;;;;;;;;;5025198;28;20629;-70
2021/10/22 04:17:57;;;;;;;9.93;1.60;;;;;;;;;;5020464;28;20190;-69
2021/10/22 04:20:22;;;;;;;11.80;2.20;;;;;;;;;;5026362;28;20205;-71
2021/10/22 04:22:48;;;;;;;7.90;1.53;;;;;;;;;;5014802;28;20745;-69
2021/10/22 04:25:13;;;;;;;14.90;2.00;;;;;;;;;;5028942;28;20178;-72
2021/10/22 04:27:39;;;;;;;5.33;1.63;;;;;;;;;;5019227;28;20742;-69
2021/10/22 04:30:07;;;;;;;11.53;1.70;;;;;;;;;;5024414;28;20170;-72
2021/10/22 04:32:32;;;;;;;12.00;1.87;;;;;;;;;;5015858;28;20194;-72
2021/10/22 04:34:58;;;;;;;9.93;1.70;;;;;;;;;;5025572;28;20216;-71
2021/10/22 04:42:42;;;;;;;14.73;2.30;;;;;;;;;;5027548;28;20248;-71
2021/10/22 04:45:09;;;;;;;11.13;1.90;;;;;;;;;;5017894;28;20271;-70
2021/10/22 04:47:35;;;;;;;6.03;1.60;;;;;;;;;;5026102;28;20209;-68
2021/10/22 04:50:02;;;;;;;8.50;1.80;;;;;;;;;;5015686;28;20642;-73
2021/10/22 04:52:27;;;;;;;12.57;1.83;;;;;;;;;;5023736;28;20190;-73
2021/10/22 04:54:53;;;;;;;8.33;1.53;;;;;;;;;;5017740;28;20200;-73
2021/10/22 04:57:18;;;;;;;13.00;2.00;;;;;;;;;;5022231;28;20507;-74
2021/10/22 04:59:43;;;;;;;10.93;2.00;;;;;;;;;;5016436;28;20256;-71
2021/10/22 05:02:08;;;;;;;13.30;2.33;;;;;;;;;;5025587;28;20632;-74
2021/10/22 05:04:34;;;;;;;12.20;2.00;;;;;;;;;;5015857;28;20633;-74
2021/10/22 05:06:59;;;;;;;8.57;1.63;;;;;;;;;;5026486;28;20656;-73
2021/10/22 05:09:24;;;;;;;8.77;1.70;;;;;;;;;;5020112;28;20252;-74
2021/10/22 05:11:50;;;;;;;10.97;1.67;;;;;;;;;;5025031;28;20232;-70
2021/10/22 05:14:15;;;;;;;8.00;1.57;;;;;;;;;;5023571;28;20190;-70
2021/10/22 05:16:40;;;;;;;10.07;1.70;;;;;;;;;;5016711;28;20201;-71
2021/10/22 05:19:06;;;;;;;9.03;2.40;;;;;;;;;;5026634;28;20195;-70
2021/10/22 05:21:31;;;;;;;11.43;2.10;;;;;;;;;;5017998;28;20197;-71
2021/10/22 05:23:56;;;;;;;10.23;2.10;;;;;;;;;;5021646;28;20550;-71
2021/10/22 05:26:22;;;;;;;15.23;3.63;;;;;;;;;;5018744;28;20768;-73
2021/10/22 05:28:47;;;;;;;11.93;2.30;;;;;;;;;;5023883;28;20565;-73
2021/10/22 05:31:12;;;;;;;10.17;1.73;;;;;;;;;;5014799;28;20202;-70
2021/10/22 05:33:38;;;;;;;10.67;1.93;;;;;;;;;;5022869;28;20186;-72
2021/10/22 05:36:03;;;;;;;14.03;1.97;;;;;;;;;;5018154;28;20194;-69
2021/10/22 05:38:29;;;;;;;10.30;1.93;;;;;;;;;;5023663;28;20194;-70
2021/10/22 05:40:54;;;;;;;13.40;2.07;;;;;;;;;;5018136;28;20273;-73
2021/10/22 05:43:19;;;;;;;7.70;1.80;;;;;;;;;;5020723;28;20924;-70
2021/10/22 05:45:45;;;;;;;16.60;2.60;;;;;;;;;;5024576;28;20660;-73
2021/10/22 05:48:10;;;;;;;12.63;2.20;;;;;;;;;;5015085;28;20568;-73
2021/10/22 05:50:39;;;;;;;17.67;2.80;;;;;;;;;;5024264;28;20630;-72
2021/10/22 05:53:04;;;;;;;16.07;2.17;;;;;;;;;;5014802;28;20193;-70
2021/10/22 05:55:30;;;;;;;13.40;2.53;;;;;;;;;;5025635;28;20205;-69
2021/10/22 05:57:56;;;;;;;12.63;2.43;;;;;;;;;;5015484;28;20719;-73
2021/10/22 06:00:21;;;;;;;9.83;2.27;;;;;;;;;;5021397;28;20284;-71
2021/10/22 06:02:50;;;;;;;12.97;2.37;;;;;;;;;;5013039;28;20277;-73
2021/10/22 06:05:15;;;;;;;10.80;2.60;;;;;;;;;;5023182;28;20189;-72
2021/10/22 06:07:41;;;;;;;10.97;2.90;;;;;;;;;;5016603;28;20236;-73
2021/10/22 06:10:07;;;;;;;16.33;2.77;;;;;;;;;;5021683;28;20190;-71
2021/10/22 06:12:32;;;;;;;13.33;3.03;;;;;;;;;;5017274;28;20269;-74
2021/10/22 06:14:58;;;;;;;15.70;3.70;;;;;;;;;;5020788;28;20197;-72
2021/10/22 06:17:23;;;;;;;9.50;2.73;;;;;;;;;;5025366;28;20273;-70
2021/10/22 06:19:51;;;;;;;13.17;2.80;;;;;;;;;;5015829;28;20213;-70
2021/10/22 06:25:05;;;;;;;15.07;3.17;;;;;;;;;;5011245;28;20202;-73
2021/10/22 06:27:31;;;;;;;9.20;2.87;;;;;;;;;;5018914;28;20207;-71
2021/10/22 06:29:57;;;;;;;18.47;3.23;;;;;;;;;;5011104;28;20304;-72
2021/10/22 06:32:23;;;;;;;16.03;3.80;;;;;;;;;;5019780;28;20290;-73
2021/10/22 06:34:48;;;;;;;16.03;2.87;;;;;;;;;;5009477;28;20647;-69
2021/10/22 06:37:14;;;;;;;10.90;2.70;;;;;;;;;;5023668;28;20563;-72
2021/10/22 06:39:39;;;;;;;14.67;3.20;;;;;;;;;;5009129;28;20212;-71
2021/10/22 06:42:04;;;;;;;12.13;3.23;;;;;;;;;;5022438;28;20611;-69
2021/10/22 06:44:31;;;;;;;14.53;3.33;;;;;;;;;;5012079;28;20186;-72
2021/10/22 06:46:57;;;;;;;14.77;3.30;;;;;;;;;;5020544;28;20228;-72
2021/10/22 06:49:23;;;;;;;22.10;3.33;;;;;;;;;;5015933;28;20657;-73
2021/10/22 06:51:48;;;;;;;15.13;3.23;;;;;;;;;;5018507;28;20273;-68
2021/10/22 06:54:14;;;;;;;13.90;2.90;;;;;;;;;;5018335;28;20326;-70
2021/10/22 06:56:39;;;;;;;13.20;3.17;;;;;;;;;;5009289;28;20252;-69
2021/10/22 06:59:05;;;;;;;16.87;3.07;;;;;;;;;;5016063;28;20394;-69
2021/10/22 07:01:30;;;;;;;12.77;3.00;;;;;;;;;;5009257;28;20574;-70
2021/10/22 07:03:56;;;;;;;12.13;3.20;;;;;;;;;;5018563;28;20550;-69
2021/10/22 07:09:05;;;;;;;11.50;2.70;;;;;;;;;;5017849;28;20614;-70
2021/10/22 07:11:31;;;;;;;14.73;2.90;;;;;;;;;;5009853;28;20666;-72
2021/10/22 07:13:58;;;;;;;11.80;3.10;;;;;;;;;;5018857;28;20553;-73
2021/10/22 07:16:27;;;;;;;14.27;3.13;;;;;;;;;;5009320;28;20197;-69
2021/10/22 07:18:52;;;;;;;15.03;3.40;;;;;;;;;;5020969;28;20661;-72
2021/10/22 07:21:19;;;;;;;11.83;3.07;;;;;;;;;;5014297;28;20248;-69
2021/10/22 07:23:47;;;;;;;13.57;2.90;;;;;;;;;;5022052;28;20225;-71
2021/10/22 07:26:14;;;;;;;15.90;3.63;;;;;;;;;;5024638;28;20273;-72
2021/10/22 07:28:40;;;;;;;12.87;2.63;;;;;;;;;;5017470;28;20205;-71
2021/10/22 07:31:06;;;;;;;13.73;2.80;;;;;;;;;;5017973;28;20648;-74
2021/10/22 07:33:31;;;;;;;15.73;2.60;;;;;;;;;;5013976;28;20185;-75
2021/10/22 07:35:58;;;;;;;10.80;2.77;;;;;;;;;;5023683;28;20659;-73
2021/10/22 07:38:24;;;;;;;19.07;3.87;;;;;;;;;;5016891;28;20190;-70
2021/10/22 07:40:49;;;;;;;11.13;3.13;;;;;;;;;;5024758;28;20531;-70
2021/10/22 07:43:17;;;;;;;12.53;2.90;;;;;;;;;;5017280;28;20207;-72
2021/10/22 07:45:43;;;;;;;17.63;3.27;;;;;;;;;;5024730;28;20589;-72
2021/10/22 07:48:09;;;;;;;12.23;3.10;;;;;;;;;;5016037;28;20201;-70
2021/10/22 07:50:34;;;;;;;16.77;2.83;;;;;;;;;;5023672;28;20194;-71
2021/10/22 07:53:00;;;;;;;11.27;2.33;;;;;;;;;;5016404;28;20186;-72
2021/10/22 07:55:26;;;;;;;13.53;2.73;;;;;;;;;;5023247;28;20194;-73
2021/10/22 07:57:51;;;;;;;17.17;3.23;;;;;;;;;;5024891;28;20233;-72
2021/10/22 08:00:17;;;;;;;11.50;2.40;;;;;;;;;;5016812;28;20300;-73
2021/10/22 08:02:42;;;;;;;13.93;3.30;;;;;;;;;;5027422;28;20837;-70
2021/10/22 08:05:09;;;;;;;13.10;2.67;;;;;;;;;;5013356;28;20194;-75
2021/10/22 08:07:37;;;;;;;12.93;2.60;;;;;;;;;;5026292;28;20222;-74
2021/10/22 08:10:07;;;;;;;11.70;2.73;;;;;;;;;;5017542;28;20182;-71
2021/10/22 08:12:33;;;;;;;12.97;3.43;;;;;;;;;;5026738;28;20897;-70
2021/10/22 08:15:00;;;;;;;11.30;3.27;;;;;;;;;;5013333;28;20628;-72
2021/10/22 08:17:25;;;;;;;12.83;3.00;;;;;;;;;;5024618;28;20190;-74
2021/10/22 08:20:20;;;;;;;12.53;2.90;;;;;;;;;;5015147;28;20225;-69
2021/10/22 08:22:38;;;;;;;11.10;3.13;;;;;;;;;;5023993;28;20217;-74
2021/10/22 08:25:08;;;;;;;11.87;3.27;;;;;;;;;;5016998;28;20517;-71
2021/10/22 08:27:39;;;;;;;16.10;3.40;;;;;;;;;;5025283;28;20660;-69
2021/10/22 08:30:09;;;;;;;12.23;2.97;;;;;;;;;;5014705;28;20186;-70
2021/10/22 08:32:34;;;;;;;15.53;2.90;;;;;;;;;;5026929;28;20225;-69
2021/10/22 08:35:05;;;;;;;11.50;2.83;;;;;;;;;;5016001;28;20280;-73
2021/10/22 08:37:34;;;;;;;16.53;4.27;;;;;;;;;;5022573;28;20594;-68
2021/10/22 08:39:59;;;;;;;10.50;2.78;;;;;;;;;;5023246;28;20283;-68
2021/10/22 08:42:25;;;;;;;14.13;3.27;;;;;;;;;;5011623;28;20267;-70
2021/10/22 08:44:53;;;;;;;12.17;2.60;;;;;;;;;;5023892;28;20190;-72
2021/10/22 08:47:24;;;;;;;17.35;2.63;;;;;;;;;;5012234;28;20193;-72
2021/10/22 08:49:50;;;;;;;8.63;2.90;;;;;;;;;;5024444;28;20186;-69
2021/10/22 08:52:15;;;;;;;13.82;2.38;;;;;;;;;;5015887;28;20630;-69
2021/10/22 08:54:41;;;;;;;13.17;2.53;;;;;;;;;;5025399;28;20198;-71
2021/10/22 08:57:07;;;;;;;13.32;2.30;;;;;;;;;;5014500;28;20237;-71
2021/10/22 08:59:33;;;;;;;12.55;2.53;;;;;;;;;;5020763;28;20307;-71
2021/10/22 09:02:14;;;;;;;8.77;2.35;;;;;;;;;;5012406;28;20317;-75
2021/10/22 09:04:41;;;;;;;14.95;2.38;;;;;;;;;;5023848;28;20194;-71
2021/10/22 09:07:06;;;;;;;9.82;2.30;;;;;;;;;;5019117;28;20204;-70
2021/10/22 09:09:33;;;;;;;14.57;2.95;;;;;;;;;;5023720;28;20666;-69
2021/10/22 09:11:58;;;;;;;14.38;2.33;;;;;;;;;;5012945;28;20186;-69
2021/10/22 09:14:26;;;;;;;13.20;2.58;;;;;;;;;;5022187;28;20742;-71
2021/10/22 09:16:53;;;;;;;23.08;2.92;;;;;;;;;;5022665;28;20257;-73
2021/10/22 09:19:44;;;;;;;10.85;3.05;;;;;;;;;;5014834;28;20278;-68
2021/10/22 09:22:21;;;;;;;9.30;2.22;;;;;;;;;;5025895;28;20175;-70
2021/10/22 09:24:55;;;;;;;14.63;2.20;;;;;;;;;;5024043;28;20278;-69
2021/10/22 09:27:34;;;;;;;12.10;2.58;;;;;;;;;;5021036;28;20190;-71
2021/10/22 09:30:00;;;;;;;13.80;2.65;;;;;;;;;;5024057;28;20216;-70
2021/10/22 09:32:26;;;;;;;14.70;2.17;;;;;;;;;;5024618;28;20226;-71
2021/10/22 09:34:52;;;;;;;10.88;2.47;;;;;;;;;;5013801;28;20186;-71
2021/10/22 09:37:17;;;;;;;12.52;2.35;;;;;;;;;;5023203;28;20193;-72
2021/10/22 09:39:43;;;;;;;13.68;2.47;;;;;;;;;;5014492;28;20198;-72
2021/10/22 09:42:14;;;;;;;8.77;2.28;;;;;;;;;;5023376;28;20301;-76
2021/10/22 09:44:41;;;;;;;15.82;2.55;;;;;;;;;;5014718;28;20193;-72
2021/10/22 09:47:07;;;;;;;10.40;2.25;;;;;;;;;;5023836;28;20212;-72
2021/10/22 09:49:46;;;;;;;8.00;2.08;;;;;;;;;;5011409;28;20186;-71
2021/10/22 09:52:21;;;;;;;11.63;1.98;;;;;;;;;;5024070;28;20819;-72
2021/10/22 09:55:02;;;;;;;15.77;3.47;;;;;;;;;;5014051;28;20205;-68
2021/10/22 09:57:27;;;;;;;12.20;2.15;;;;;;;;;;5021428;28;20658;-71
2021/10/22 10:00:02;;;;;;;14.68;2.28;;;;;;;;;;5017738;28;20216;-70
2021/10/22 10:02:28;;;;;;;15.10;2.38;;;;;;;;;;5023392;28;20195;-70
2021/10/22 10:04:53;;;;;;;9.73;2.30;;;;;;;;;;5013954;28;20525;-70
2021/10/22 10:07:19;;;;;;;9.07;2.15;;;;;;;;;;5021323;28;20260;-69
2021/10/22 10:09:45;;;;;;;8.27;2.13;;;;;;;;;;5017616;28;20204;-68
2021/10/22 10:12:13;;;;;;;7.30;1.60;;;;;;;;;;5022768;28;20178;-69
2021/10/22 10:14:39;;;;;;;9.80;1.92;;;;;;;;;;5020343;28;20239;-70
2021/10/22 10:17:04;;;;;;;8.35;2.20;;;;;;;;;;5015601;28;20230;-70
2021/10/22 10:19:37;;;;;;;10.23;2.10;;;;;;;;;;5026714;28;20182;-71
2021/10/22 10:22:07;;;;;;;13.00;2.05;;;;;;;;;;5014544;28;20201;-73
2021/10/22 10:24:36;;;;;;;6.47;1.35;;;;;;;;;;5021865;28;20266;-72
2021/10/22 10:27:16;;;;;;;6.47;1.88;;;;;;;;;;5011813;28;20201;-72
2021/10/22 10:29:44;;;;;;;11.40;2.13;;;;;;;;;;5024553;28;20707;-69
2021/10/22 10:32:16;;;;;;;11.30;2.22;;;;;;;;;;5009730;28;20194;-72
2021/10/22 10:34:49;;;;;;;10.20;1.65;;;;;;;;;;4325395;28;10000725;-70
2021/10/22 10:37:39;;;;;;;9.20;1.65;;;;;;;;;;5010459;28;20182;-73
2021/10/22 10:40:06;;;;;;;8.00;1.90;;;;;;;;;;5021805;28;20201;-74
2021/10/22 10:42:38;;;;;;;10.73;1.80;;;;;;;;;;5011124;28;20240;-73
2021/10/22 10:45:15;;;;;;;9.10;1.83;;;;;;;;;;5018522;28;20200;-69
2021/10/22 10:48:06;;;;;;;9.82;1.45;;;;;;;;;;5010037;28;20189;-69
2021/10/22 10:50:43;;;;;;;18.05;2.55;;;;;;;;;;5018823;28;20312;-72
2021/10/22 10:53:14;;;;;;;14.65;1.83;;;;;;;;;;5014557;28;20701;-70
2021/10/22 10:55:42;;;;;;;18.30;2.70;;;;;;;;;;5023791;28;20196;-69
2021/10/22 10:58:07;;;;;;;12.52;2.75;;;;;;;;;;5015151;28;20221;-74
2021/10/22 11:00:35;;;;;;;11.27;1.88;;;;;;;;;;5024364;28;20700;-70
2021/10/22 11:03:04;;;;;;;14.35;2.10;;;;;;;;;;5012888;28;20194;-72
2021/10/22 11:05:42;;;;;;;12.18;2.25;;;;;;;;;;5024314;28;20185;-70
2021/10/22 11:08:15;;;;;;;10.95;1.88;;;;;;;;;;5013271;28;20252;-69
2021/10/22 11:11:04;;;;;;;16.17;2.05;;;;;;;;;;5022454;28;20190;-68
2021/10/22 11:13:50;;;;;;;15.57;2.78;;;;;;;;;;5014867;28;20174;-69
2021/10/22 11:16:22;;;;;;;16.50;2.20;;;;;;;;;;5023517;28;20205;-69
2021/10/22 11:18:51;;;;;;;14.48;2.50;;;;;;;;;;5014593;28;20263;-71
2021/10/22 11:21:18;;;;;;;17.95;2.67;;;;;;;;;;5024692;28;20213;-69
2021/10/22 11:23:43;;;;;;;12.57;2.00;;;;;;;;;;5008782;28;20274;-69
2021/10/22 11:26:19;;;;;;;17.50;2.60;;;;;;;;;;5023833;28;20273;-70
2021/10/22 11:28:55;;;;;;;21.80;3.05;;;;;;;;;;5016647;28;20272;-72
2021/10/22 11:31:41;;;;;;;15.32;2.50;;;;;;;;;;5024642;28;20715;-72
2021/10/22 11:34:12;;;;;;;14.38;2.70;;;;;;;;;;5013727;28;20190;-72
2021/10/22 11:36:38;;;;;;;16.15;2.30;;;;;;;;;;5023680;28;20204;-72
2021/10/22 11:39:17;;;;;;;13.18;2.53;;;;;;;;;;5023271;28;20228;-72
2021/10/22 11:41:43;;;;;;;15.70;2.92;;;;;;;;;;5020171;28;20684;-73
2021/10/22 11:44:09;;;;;;;13.98;2.45;;;;;;;;;;5020925;28;20190;-75
2021/10/22 11:46:44;;;;;;;19.40;2.50;;;;;;;;;;5015422;28;20609;-75
2021/10/22 11:49:26;;;;;;;13.00;2.92;;;;;;;;;;5024219;28;20186;-76
2021/10/22 11:51:53;;;;;;;10.80;2.10;;;;;;;;;;5011170;28;20685;-73
2021/10/22 11:54:20;;;;;;;14.40;2.45;;;;;;;;;;5018418;28;20189;-75
2021/10/22 11:56:46;;;;;;;15.20;2.63;;;;;;;;;;5012524;28;20287;-74
2021/10/22 11:59:12;;;;;;;14.70;2.35;;;;;;;;;;5021361;28;20190;-74
2021/10/22 12:01:40;;;;;;;14.15;2.28;;;;;;;;;;5011285;28;20201;-75
2021/10/22 12:04:08;;;;;;;16.10;2.65;;;;;;;;;;5019933;28;20658;-72
2021/10/22 12:06:33;;;;;;;12.02;1.92;;;;;;;;;;5026841;28;20220;-72
2021/10/22 12:09:01;;;;;;;24.70;3.42;;;;;;;;;;5021473;28;20264;-72
2021/10/22 12:11:29;;;;;;;11.00;2.33;;;;;;;;;;5012206;28;20676;-72
2021/10/22 12:13:54;;;;;;;10.07;1.88;;;;;;;;;;5020499;28;20221;-72
2021/10/22 12:16:30;;;;;;;4.90;1.05;;;;;;;;;;5015920;28;20218;-78
2021/10/22 12:18:59;;;;;;;5.70;1.27;;;;;;;;;;5024179;28;20186;-78
2021/10/22 12:21:26;;;;;;;7.03;2.05;;;;;;;;;;5015563;28;20272;-74
2021/10/22 12:23:56;;;;;;;7.45;1.38;;;;;;;;;;5018580;28;20260;-74
2021/10/22 12:26:22;;;;;;;7.28;1.35;;;;;;;;;;5026492;28;20677;-75
2021/10/22 12:29:06;;;;;;;4.13;0.75;;;;;;;;;;5013139;28;24135;-77
2021/10/22 12:31:45;;;;;;;5.30;0.90;;;;;;;;;;5021809;28;20276;-73
2021/10/22 12:34:26;;;;;;;6.47;1.20;;;;;;;;;;5011332;28;20204;-73
2021/10/22 12:37:13;;;;;;;10.00;1.10;;;;;;;;;;5019833;28;20202;-72
2021/10/22 12:39:48;;;;;;;9.30;1.40;;;;;;;;;;5037024;28;20210;-72
2021/10/22 12:42:21;;;;;;;11.25;1.80;;;;;;;;;;5021713;28;20225;-71
2021/10/22 12:44:47;;;;;;;13.82;1.90;;;;;;;;;;5019376;28;20546;-71
2021/10/22 12:47:12;;;;;;;12.40;1.67;;;;;;;;;;5020950;28;20189;-70
2021/10/22 12:49:39;;;;;;;9.20;1.73;;;;;;;;;;5013203;28;20269;-71
2021/10/22 12:52:06;;;;;;;13.57;2.25;;;;;;;;;;5023105;28;20182;-71
2021/10/22 12:54:48;;;;;;;9.93;1.80;;;;;;;;;;5011942;28;20657;-70
2021/10/22 12:57:21;;;;;;;13.45;2.03;;;;;;;;;;5022553;28;20197;-71
2021/10/22 12:59:47;;;;;;;13.40;1.90;;;;;;;;;;5016817;28;20240;-70
2021/10/22 13:02:32;;;;;;;8.32;1.95;;;;;;;;;;5019120;28;20655;-71
2021/10/22 13:05:10;;;;;;;10.10;2.28;;;;;;;;;;5016782;28;20201;-70
2021/10/22 13:07:49;;;;;;;9.68;2.15;;;;;;;;;;5024624;28;20740;-70
2021/10/22 13:10:30;;;;;;;9.10;2.40;;;;;;;;;;5013400;28;20292;-71
2021/10/22 13:13:42;;;;;;;9.40;1.75;;;;;;;;;;5021388;28;20182;-70
2021/10/22 13:21:14;;;;;;;5.28;1.00;;;;;;;;;;5015754;28;20303;-75
2021/10/22 13:23:40;;;;;;;3.47;0.57;;;;;;;;;;5020430;28;20191;-76
2021/10/22 13:26:06;;;;;;;4.88;0.90;;;;;;;;;;5015573;28;20216;-76
2021/10/22 13:28:33;;;;;;;6.45;0.90;;;;;;;;;;5025330;28;20601;-76
2021/10/22 13:31:06;;;;;;;5.97;1.60;;;;;;;;;;5014875;28;20248;-74
2021/10/22 13:33:32;;;;;;;4.18;0.80;;;;;;;;;;4672023;28;9999747;-75
2021/10/22 13:36:01;;;;;;;9.27;1.50;;;;;;;;;;5012997;28;20277;-74
2021/10/22 13:38:28;;;;;;;8.57;3.83;;;;;;;;;;5018353;28;20252;-74
2021/10/22 13:40:54;;;;;;;16.88;4.97;;;;;;;;;;5011466;28;20216;-75
2021/10/22 13:43:20;;;;;;;10.35;2.05;;;;;;;;;;5018404;28;20197;-73
2021/10/22 13:45:45;;;;;;;7.90;2.70;;;;;;;;;;5014855;28;20182;-72
2021/10/22 13:48:12;;;;;;;8.82;1.65;;;;;;;;;;5019732;28;20614;-71
2021/10/22 13:50:38;;;;;;;9.32;2.05;;;;;;;;;;5018888;28;20186;-72
2021/10/22 13:53:05;;;;;;;7.95;1.33;;;;;;;;;;5011073;28;20620;-71
2021/10/22 13:55:31;;;;;;;7.35;1.50;;;;;;;;;;5017956;28;20190;-71
2021/10/22 13:57:56;;;;;;;8.50;1.80;;;;;;;;;;5012616;28;20292;-72
2021/10/22 14:00:21;;;;;;;8.63;2.20;;;;;;;;;;5018692;28;20213;-70
2021/10/22 14:02:48;;;;;;;14.30;2.22;;;;;;;;;;5010967;28;20659;-71
2021/10/22 14:05:13;;;;;;;11.70;2.00;;;;;;;;;;5018807;28;20178;-70
2021/10/22 14:07:39;;;;;;;9.40;2.08;;;;;;;;;;5008419;28;20844;-71
2021/10/22 14:10:05;;;;;;;9.48;1.67;;;;;;;;;;5019699;28;20634;-71
2021/10/22 14:15:11;;;;;;;13.07;1.35;;;;;;;;;;5018640;28;20561;-71
2021/10/22 14:31:06;;;;;;;12.95;2.63;;;;;;;;;;5016855;28;20201;-70
2021/10/22 14:33:31;;;;;;;11.00;2.30;;;;;;;;;;5006949;28;20505;-72
2021/10/22 14:35:57;;;;;;;20.30;2.75;;;;;;;;;;5019086;28;20198;-71
2021/10/22 14:38:22;;;;;;;13.23;2.42;;;;;;;;;;5013896;28;20223;-71
2021/10/22 14:40:50;;;;;;;12.23;2.65;;;;;;;;;;5014405;28;20292;-72
2021/10/22 14:43:24;;;;;;;10.82;1.98;;;;;;;;;;5020359;28;20686;-71
2021/10/22 14:46:00;;;;;;;14.70;2.20;;;;;;;;;;5011546;28;20285;-72
2021/10/22 14:48:25;;;;;;;10.73;2.25;;;;;;;;;;5021359;28;20185;-72
2021/10/22 14:50:51;;;;;;;15.73;2.58;;;;;;;;;;5013706;28;20251;-71
2021/10/22 14:53:23;;;;;;;19.30;3.55;;;;;;;;;;5022550;28;20220;-71
2021/10/22 14:55:49;;;;;;;15.35;3.78;;;;;;;;;;5013005;28;20178;-72
2021/10/22 14:58:19;;;;;;;12.82;2.50;;;;;;;;;;5022393;28;20826;-71
2021/10/22 15:00:46;;;;;;;16.52;3.00;;;;;;;;;;5014208;28;20202;-72
2021/10/22 15:03:12;;;;;;;19.77;2.15;;;;;;;;;;5019051;28;20193;-71
2021/10/22 15:05:38;;;;;;;18.98;3.13;;;;;;;;;;5014323;28;20212;-71
2021/10/22 15:08:05;;;;;;;14.27;2.17;;;;;;;;;;5021388;28;20697;-72
2021/10/22 15:10:31;;;;;;;7.22;1.83;;;;;;;;;;5014596;28;20209;-71
2021/10/22 15:12:58;;;;;;;7.72;2.22;;;;;;;;;;4674581;28;10000344;-73
2021/10/22 15:15:24;;;;;;;9.75;2.33;;;;;;;;;;5011157;28;20247;-75